sensor_id;sensor_type;location;lat;lon;timestamp;temperature;humidity
76120;DHT22;64852;48.092;-1.640;2023-06-22T00:00:51;22.10;96.00
76120;DHT22;64852;48.092;-1.640;2023-06-22T00:03:18;22.20;95.10
76120;DHT22;64852;48.092;-1.640;2023-06-22T00:05:48;22.10;97.50
76120;DHT22;64852;48.092;-1.640;2023-06-22T00:08:14;22.10;97.70
76120;DHT22;64852;48.092;-1.640;2023-06-22T00:10:40;22.10;96.60
76120;DHT22;64852;48.092;-1.640;2023-06-22T00:13:07;22.10;97.20
76120;DHT22;64852;48.092;-1.640;2023-06-22T00:15:33;22.10;99.90
76120;DHT22;64852;48.092;-1.640;2023-06-22T00:17:59;22.00;99.90
76120;DHT22;64852;48.092;-1.640;2023-06-22T00:20:26;22.10;99.90
76120;DHT22;64852;48.092;-1.640;2023-06-22T00:22:56;22.00;99.90
76120;DHT22;64852;48.092;-1.640;2023-06-22T00:25:22;22.00;99.90
76120;DHT22;64852;48.092;-1.640;2023-06-22T00:27:48;21.90;99.90
76120;DHT22;64852;48.092;-1.640;2023-06-22T00:30:16;21.90;99.90
76120;DHT22;64852;48.092;-1.640;2023-06-22T00:32:42;21.90;99.90
76120;DHT22;64852;48.092;-1.640;2023-06-22T00:35:08;21.90;99.90
76120;DHT22;64852;48.092;-1.640;2023-06-22T00:37:35;21.80;99.90
76120;DHT22;64852;48.092;-1.640;2023-06-22T00:40:02;21.80;99.90
76120;DHT22;64852;48.092;-1.640;2023-06-22T00:42:28;21.80;99.90
76120;DHT22;64852;48.092;-1.640;2023-06-22T00:44:53;21.90;99.90
76120;DHT22;64852;48.092;-1.640;2023-06-22T00:47:19;21.80;99.90
76120;DHT22;64852;48.092;-1.640;2023-06-22T00:49:47;21.80;99.90
76120;DHT22;64852;48.092;-1.640;2023-06-22T00:52:14;21.80;99.90
76120;DHT22;64852;48.092;-1.640;2023-06-22T00:54:47;21.80;99.90
76120;DHT22;64852;48.092;-1.640;2023-06-22T00:57:15;21.70;99.90
76120;DHT22;64852;48.092;-1.640;2023-06-22T00:59:44;21.70;99.90
76120;DHT22;64852;48.092;-1.640;2023-06-22T01:02:10;21.70;99.90
76120;DHT22;64852;48.092;-1.640;2023-06-22T01:04:37;21.60;99.90
76120;DHT22;64852;48.092;-1.640;2023-06-22T01:10:02;21.60;99.90
76120;DHT22;64852;48.092;-1.640;2023-06-22T01:12:34;21.50;99.90
76120;DHT22;64852;48.092;-1.640;2023-06-22T01:15:09;21.50;99.90
76120;DHT22;64852;48.092;-1.640;2023-06-22T01:17:37;21.50;99.90
76120;DHT22;64852;48.092;-1.640;2023-06-22T01:20:07;21.40;99.90
76120;DHT22;64852;48.092;-1.640;2023-06-22T01:25:28;21.40;99.90
76120;DHT22;64852;48.092;-1.640;2023-06-22T01:28:05;21.30;99.90
76120;DHT22;64852;48.092;-1.640;2023-06-22T01:30:34;21.30;99.90
76120;DHT22;64852;48.092;-1.640;2023-06-22T01:33:01;21.30;99.90
76120;DHT22;64852;48.092;-1.640;2023-06-22T01:35:28;21.20;99.90
76120;DHT22;64852;48.092;-1.640;2023-06-22T01:37:55;21.20;99.90
76120;DHT22;64852;48.092;-1.640;2023-06-22T01:40:21;21.20;99.90
76120;DHT22;64852;48.092;-1.640;2023-06-22T01:42:48;21.20;99.90
76120;DHT22;64852;48.092;-1.640;2023-06-22T01:45:14;21.20;99.90
76120;DHT22;64852;48.092;-1.640;2023-06-22T01:47:41;21.10;99.90
76120;DHT22;64852;48.092;-1.640;2023-06-22T01:50:07;21.10;99.90
76120;DHT22;64852;48.092;-1.640;2023-06-22T01:52:33;21.10;99.90
76120;DHT22;64852;48.092;-1.640;2023-06-22T01:55:00;21.10;99.90
76120;DHT22;64852;48.092;-1.640;2023-06-22T01:57:26;21.00;99.90
76120;DHT22;64852;48.092;-1.640;2023-06-22T02:00:06;21.00;99.90
76120;DHT22;64852;48.092;-1.640;2023-06-22T02:02:59;21.00;99.90
76120;DHT22;64852;48.092;-1.640;2023-06-22T02:05:34;21.30;99.90
76120;DHT22;64852;48.092;-1.640;2023-06-22T02:10:31;20.90;99.90
76120;DHT22;64852;48.092;-1.640;2023-06-22T02:12:59;20.90;99.90
76120;DHT22;64852;48.092;-1.640;2023-06-22T02:15:25;21.00;99.90
76120;DHT22;64852;48.092;-1.640;2023-06-22T02:17:51;20.90;99.90
76120;DHT22;64852;48.092;-1.640;2023-06-22T02:20:17;20.90;99.90
76120;DHT22;64852;48.092;-1.640;2023-06-22T02:22:43;20.90;99.90
76120;DHT22;64852;48.092;-1.640;2023-06-22T02:25:09;20.80;99.90
76120;DHT22;64852;48.092;-1.640;2023-06-22T02:27:34;20.80;99.90
76120;DHT22;64852;48.092;-1.640;2023-06-22T02:30:00;20.90;99.90
76120;DHT22;64852;48.092;-1.640;2023-06-22T02:32:26;20.80;99.90
76120;DHT22;64852;48.092;-1.640;2023-06-22T02:34:52;20.80;99.90
76120;DHT22;64852;48.092;-1.640;2023-06-22T02:37:18;20.90;99.90
76120;DHT22;64852;48.092;-1.640;2023-06-22T02:39:44;20.80;99.90
76120;DHT22;64852;48.092;-1.640;2023-06-22T02:42:10;20.80;99.90
76120;DHT22;64852;48.092;-1.640;2023-06-22T02:44:38;20.80;99.90
76120;DHT22;64852;48.092;-1.640;2023-06-22T02:47:04;20.80;99.90
76120;DHT22;64852;48.092;-1.640;2023-06-22T02:49:30;20.70;99.90
76120;DHT22;64852;48.092;-1.640;2023-06-22T02:51:57;20.70;99.90
76120;DHT22;64852;48.092;-1.640;2023-06-22T02:54:23;20.70;99.90
76120;DHT22;64852;48.092;-1.640;2023-06-22T02:56:48;20.70;99.90
76120;DHT22;64852;48.092;-1.640;2023-06-22T02:59:16;20.70;99.90
76120;DHT22;64852;48.092;-1.640;2023-06-22T03:01:41;20.70;99.90
76120;DHT22;64852;48.092;-1.640;2023-06-22T03:04:07;20.70;99.90
76120;DHT22;64852;48.092;-1.640;2023-06-22T03:06:33;20.60;99.90
76120;DHT22;64852;48.092;-1.640;2023-06-22T03:09:01;20.60;99.90
76120;DHT22;64852;48.092;-1.640;2023-06-22T03:11:27;20.60;99.90
76120;DHT22;64852;48.092;-1.640;2023-06-22T03:13:53;20.50;99.90
76120;DHT22;64852;48.092;-1.640;2023-06-22T03:16:19;20.50;99.90
76120;DHT22;64852;48.092;-1.640;2023-06-22T03:18:45;20.50;99.90
76120;DHT22;64852;48.092;-1.640;2023-06-22T03:21:10;20.60;99.90
76120;DHT22;64852;48.092;-1.640;2023-06-22T03:23:36;20.50;99.90
76120;DHT22;64852;48.092;-1.640;2023-06-22T03:26:02;20.50;99.90
76120;DHT22;64852;48.092;-1.640;2023-06-22T03:28:29;21.80;99.90
76120;DHT22;64852;48.092;-1.640;2023-06-22T03:30:57;20.50;99.90
76120;DHT22;64852;48.092;-1.640;2023-06-22T03:33:23;20.50;99.90
76120;DHT22;64852;48.092;-1.640;2023-06-22T03:35:48;20.50;99.90
76120;DHT22;64852;48.092;-1.640;2023-06-22T03:38:16;20.50;99.90
76120;DHT22;64852;48.092;-1.640;2023-06-22T03:40:41;20.40;99.90
76120;DHT22;64852;48.092;-1.640;2023-06-22T03:43:07;20.40;99.90
76120;DHT22;64852;48.092;-1.640;2023-06-22T03:45:32;20.40;99.90
76120;DHT22;64852;48.092;-1.640;2023-06-22T03:47:58;20.40;99.90
76120;DHT22;64852;48.092;-1.640;2023-06-22T03:50:24;20.30;99.90
76120;DHT22;64852;48.092;-1.640;2023-06-22T03:52:49;20.40;99.90
76120;DHT22;64852;48.092;-1.640;2023-06-22T03:55:19;20.30;99.90
76120;DHT22;64852;48.092;-1.640;2023-06-22T03:57:45;20.30;99.90
76120;DHT22;64852;48.092;-1.640;2023-06-22T04:00:11;20.20;99.90
76120;DHT22;64852;48.092;-1.640;2023-06-22T04:02:36;20.20;99.90
76120;DHT22;64852;48.092;-1.640;2023-06-22T04:05:02;20.20;99.90
76120;DHT22;64852;48.092;-1.640;2023-06-22T04:07:28;20.20;99.90
76120;DHT22;64852;48.092;-1.640;2023-06-22T04:09:53;20.20;99.90
76120;DHT22;64852;48.092;-1.640;2023-06-22T04:12:19;20.20;99.90
76120;DHT22;64852;48.092;-1.640;2023-06-22T04:14:44;20.20;99.90
76120;DHT22;64852;48.092;-1.640;2023-06-22T04:17:10;20.10;99.90
76120;DHT22;64852;48.092;-1.640;2023-06-22T04:19:40;20.10;99.90
76120;DHT22;64852;48.092;-1.640;2023-06-22T04:22:06;20.40;99.90
76120;DHT22;64852;48.092;-1.640;2023-06-22T04:24:32;20.10;99.90
76120;DHT22;64852;48.092;-1.640;2023-06-22T04:26:58;20.00;99.90
76120;DHT22;64852;48.092;-1.640;2023-06-22T04:29:29;20.10;99.90
76120;DHT22;64852;48.092;-1.640;2023-06-22T04:31:56;20.00;99.90
76120;DHT22;64852;48.092;-1.640;2023-06-22T04:34:24;20.00;99.90
76120;DHT22;64852;48.092;-1.640;2023-06-22T04:36:51;20.00;99.90
76120;DHT22;64852;48.092;-1.640;2023-06-22T04:39:17;20.00;99.90
76120;DHT22;64852;48.092;-1.640;2023-06-22T04:41:44;20.00;99.90
76120;DHT22;64852;48.092;-1.640;2023-06-22T04:44:14;20.00;99.90
76120;DHT22;64852;48.092;-1.640;2023-06-22T04:46:57;20.00;99.90
76120;DHT22;64852;48.092;-1.640;2023-06-22T04:49:29;20.10;99.90
76120;DHT22;64852;48.092;-1.640;2023-06-22T04:52:09;20.00;99.90
76120;DHT22;64852;48.092;-1.640;2023-06-22T04:54:36;20.00;99.90
76120;DHT22;64852;48.092;-1.640;2023-06-22T04:57:04;20.00;99.90
76120;DHT22;64852;48.092;-1.640;2023-06-22T04:59:31;20.00;99.90
76120;DHT22;64852;48.092;-1.640;2023-06-22T05:01:57;20.00;99.90
76120;DHT22;64852;48.092;-1.640;2023-06-22T05:04:24;19.90;99.90
76120;DHT22;64852;48.092;-1.640;2023-06-22T05:06:54;20.00;99.90
76120;DHT22;64852;48.092;-1.640;2023-06-22T05:09:20;19.90;99.90
76120;DHT22;64852;48.092;-1.640;2023-06-22T05:11:46;19.90;99.90
76120;DHT22;64852;48.092;-1.640;2023-06-22T05:14:12;19.80;99.90
76120;DHT22;64852;48.092;-1.640;2023-06-22T05:16:38;19.80;99.90
76120;DHT22;64852;48.092;-1.640;2023-06-22T05:19:04;19.90;99.90
76120;DHT22;64852;48.092;-1.640;2023-06-22T05:21:31;19.80;99.90
76120;DHT22;64852;48.092;-1.640;2023-06-22T05:23:57;19.90;99.90
76120;DHT22;64852;48.092;-1.640;2023-06-22T05:26:28;19.90;99.90
76120;DHT22;64852;48.092;-1.640;2023-06-22T05:28:54;19.90;99.90
76120;DHT22;64852;48.092;-1.640;2023-06-22T05:31:20;19.90;99.90
76120;DHT22;64852;48.092;-1.640;2023-06-22T05:33:47;19.90;99.90
76120;DHT22;64852;48.092;-1.640;2023-06-22T05:36:13;19.90;99.90
76120;DHT22;64852;48.092;-1.640;2023-06-22T05:38:39;20.00;99.90
76120;DHT22;64852;48.092;-1.640;2023-06-22T05:41:05;19.90;99.90
76120;DHT22;64852;48.092;-1.640;2023-06-22T05:43:31;19.90;99.90
76120;DHT22;64852;48.092;-1.640;2023-06-22T05:45:57;20.00;99.90
76120;DHT22;64852;48.092;-1.640;2023-06-22T05:48:23;20.00;99.90
76120;DHT22;64852;48.092;-1.640;2023-06-22T05:50:49;20.00;99.90
76120;DHT22;64852;48.092;-1.640;2023-06-22T05:53:15;20.00;99.90
76120;DHT22;64852;48.092;-1.640;2023-06-22T05:55:41;20.00;99.90
76120;DHT22;64852;48.092;-1.640;2023-06-22T05:58:08;20.10;99.90
76120;DHT22;64852;48.092;-1.640;2023-06-22T06:00:34;20.10;99.90
76120;DHT22;64852;48.092;-1.640;2023-06-22T06:03:00;20.00;99.90
76120;DHT22;64852;48.092;-1.640;2023-06-22T06:05:32;20.10;99.90
76120;DHT22;64852;48.092;-1.640;2023-06-22T06:08:00;20.10;99.90
76120;DHT22;64852;48.092;-1.640;2023-06-22T06:10:25;20.10;99.90
76120;DHT22;64852;48.092;-1.640;2023-06-22T06:12:52;20.20;99.90
76120;DHT22;64852;48.092;-1.640;2023-06-22T06:15:18;20.20;99.90
76120;DHT22;64852;48.092;-1.640;2023-06-22T06:17:51;20.20;99.90
76120;DHT22;64852;48.092;-1.640;2023-06-22T06:20:22;20.20;99.90
76120;DHT22;64852;48.092;-1.640;2023-06-22T06:22:48;20.20;99.90
76120;DHT22;64852;48.092;-1.640;2023-06-22T06:25:13;20.30;99.90
76120;DHT22;64852;48.092;-1.640;2023-06-22T06:27:43;20.30;99.90
76120;DHT22;64852;48.092;-1.640;2023-06-22T06:30:10;20.40;99.90
76120;DHT22;64852;48.092;-1.640;2023-06-22T06:32:36;20.40;99.90
76120;DHT22;64852;48.092;-1.640;2023-06-22T06:35:01;20.50;99.90
76120;DHT22;64852;48.092;-1.640;2023-06-22T06:37:27;20.50;99.90
76120;DHT22;64852;48.092;-1.640;2023-06-22T06:39:53;20.60;99.90
76120;DHT22;64852;48.092;-1.640;2023-06-22T06:42:19;20.60;99.90
76120;DHT22;64852;48.092;-1.640;2023-06-22T06:44:45;20.60;99.90
76120;DHT22;64852;48.092;-1.640;2023-06-22T06:47:10;20.70;99.90
76120;DHT22;64852;48.092;-1.640;2023-06-22T06:49:36;20.70;99.90
76120;DHT22;64852;48.092;-1.640;2023-06-22T06:52:02;20.80;99.90
76120;DHT22;64852;48.092;-1.640;2023-06-22T06:54:27;20.80;99.90
76120;DHT22;64852;48.092;-1.640;2023-06-22T06:56:53;20.80;99.90
76120;DHT22;64852;48.092;-1.640;2023-06-22T06:59:19;20.80;99.90
76120;DHT22;64852;48.092;-1.640;2023-06-22T07:01:44;20.90;99.90
76120;DHT22;64852;48.092;-1.640;2023-06-22T07:04:10;20.80;99.90
76120;DHT22;64852;48.092;-1.640;2023-06-22T07:06:36;20.90;99.90
76120;DHT22;64852;48.092;-1.640;2023-06-22T07:09:03;20.90;99.90
76120;DHT22;64852;48.092;-1.640;2023-06-22T07:11:29;20.90;99.90
76120;DHT22;64852;48.092;-1.640;2023-06-22T07:13:54;20.90;99.90
76120;DHT22;64852;48.092;-1.640;2023-06-22T07:16:20;20.90;99.90
76120;DHT22;64852;48.092;-1.640;2023-06-22T07:18:45;21.00;99.90
76120;DHT22;64852;48.092;-1.640;2023-06-22T07:21:11;21.00;99.90
76120;DHT22;64852;48.092;-1.640;2023-06-22T07:23:37;21.00;99.90
76120;DHT22;64852;48.092;-1.640;2023-06-22T07:26:02;21.00;99.90
76120;DHT22;64852;48.092;-1.640;2023-06-22T07:28:28;21.10;99.90
76120;DHT22;64852;48.092;-1.640;2023-06-22T07:30:56;21.20;99.90
76120;DHT22;64852;48.092;-1.640;2023-06-22T07:33:22;21.20;99.90
76120;DHT22;64852;48.092;-1.640;2023-06-22T07:35:48;21.30;99.90
76120;DHT22;64852;48.092;-1.640;2023-06-22T07:38:14;21.30;99.90
76120;DHT22;64852;48.092;-1.640;2023-06-22T07:40:40;21.40;99.90
76120;DHT22;64852;48.092;-1.640;2023-06-22T07:43:07;21.40;99.90
76120;DHT22;64852;48.092;-1.640;2023-06-22T07:45:32;21.40;99.90
76120;DHT22;64852;48.092;-1.640;2023-06-22T07:48:00;21.40;99.90
76120;DHT22;64852;48.092;-1.640;2023-06-22T07:50:26;21.50;99.90
76120;DHT22;64852;48.092;-1.640;2023-06-22T07:52:52;21.50;99.90
76120;DHT22;64852;48.092;-1.640;2023-06-22T07:55:18;21.50;99.90
76120;DHT22;64852;48.092;-1.640;2023-06-22T07:57:44;21.50;99.90
76120;DHT22;64852;48.092;-1.640;2023-06-22T08:00:10;21.60;99.90
76120;DHT22;64852;48.092;-1.640;2023-06-22T08:02:41;21.60;99.90
76120;DHT22;64852;48.092;-1.640;2023-06-22T08:05:08;21.60;99.90
76120;DHT22;64852;48.092;-1.640;2023-06-22T08:07:35;21.70;99.90
76120;DHT22;64852;48.092;-1.640;2023-06-22T08:10:03;21.70;99.90
76120;DHT22;64852;48.092;-1.640;2023-06-22T08:12:29;21.80;99.90
76120;DHT22;64852;48.092;-1.640;2023-06-22T08:14:55;21.80;99.90
76120;DHT22;64852;48.092;-1.640;2023-06-22T08:17:22;21.80;99.90
76120;DHT22;64852;48.092;-1.640;2023-06-22T08:19:48;21.90;99.90
76120;DHT22;64852;48.092;-1.640;2023-06-22T08:22:14;21.90;99.90
76120;DHT22;64852;48.092;-1.640;2023-06-22T08:24:39;22.00;99.90
76120;DHT22;64852;48.092;-1.640;2023-06-22T08:27:07;22.00;99.90
76120;DHT22;64852;48.092;-1.640;2023-06-22T08:29:34;22.10;99.90
76120;DHT22;64852;48.092;-1.640;2023-06-22T08:31:59;22.20;99.90
76120;DHT22;64852;48.092;-1.640;2023-06-22T08:34:25;22.30;99.90
76120;DHT22;64852;48.092;-1.640;2023-06-22T08:36:53;22.50;99.90
76120;DHT22;64852;48.092;-1.640;2023-06-22T08:39:22;22.60;99.90
76120;DHT22;64852;48.092;-1.640;2023-06-22T08:41:48;22.70;99.90
76120;DHT22;64852;48.092;-1.640;2023-06-22T08:44:14;22.70;99.90
76120;DHT22;64852;48.092;-1.640;2023-06-22T08:46:39;22.70;99.90
76120;DHT22;64852;48.092;-1.640;2023-06-22T08:49:06;22.70;99.90
76120;DHT22;64852;48.092;-1.640;2023-06-22T08:51:32;22.70;99.90
76120;DHT22;64852;48.092;-1.640;2023-06-22T08:53:58;22.70;99.90
76120;DHT22;64852;48.092;-1.640;2023-06-22T08:56:23;22.60;99.90
76120;DHT22;64852;48.092;-1.640;2023-06-22T08:58:49;22.60;99.90
76120;DHT22;64852;48.092;-1.640;2023-06-22T09:01:15;22.70;99.90
76120;DHT22;64852;48.092;-1.640;2023-06-22T09:03:43;22.80;99.90
76120;DHT22;64852;48.092;-1.640;2023-06-22T09:06:08;22.90;99.90
76120;DHT22;64852;48.092;-1.640;2023-06-22T09:08:39;23.00;99.90
76120;DHT22;64852;48.092;-1.640;2023-06-22T09:11:04;23.10;99.90
76120;DHT22;64852;48.092;-1.640;2023-06-22T09:13:31;23.20;99.90
76120;DHT22;64852;48.092;-1.640;2023-06-22T09:15:57;23.20;99.90
76120;DHT22;64852;48.092;-1.640;2023-06-22T09:18:22;23.30;99.90
76120;DHT22;64852;48.092;-1.640;2023-06-22T09:20:48;23.30;99.90
76120;DHT22;64852;48.092;-1.640;2023-06-22T09:23:14;23.40;99.90
76120;DHT22;64852;48.092;-1.640;2023-06-22T09:25:40;23.40;99.90
76120;DHT22;64852;48.092;-1.640;2023-06-22T09:28:06;23.40;99.90
76120;DHT22;64852;48.092;-1.640;2023-06-22T09:30:32;23.50;99.90
76120;DHT22;64852;48.092;-1.640;2023-06-22T09:32:57;23.60;99.90
76120;DHT22;64852;48.092;-1.640;2023-06-22T09:35:23;23.60;99.90
76120;DHT22;64852;48.092;-1.640;2023-06-22T09:37:48;23.70;99.90
76120;DHT22;64852;48.092;-1.640;2023-06-22T09:40:14;23.80;99.90
76120;DHT22;64852;48.092;-1.640;2023-06-22T09:42:42;23.80;99.90
76120;DHT22;64852;48.092;-1.640;2023-06-22T09:45:08;23.90;99.90
76120;DHT22;64852;48.092;-1.640;2023-06-22T09:47:34;23.90;99.90
76120;DHT22;64852;48.092;-1.640;2023-06-22T09:50:00;24.00;99.90
76120;DHT22;64852;48.092;-1.640;2023-06-22T09:52:25;24.10;99.90
76120;DHT22;64852;48.092;-1.640;2023-06-22T09:54:51;24.20;99.90
76120;DHT22;64852;48.092;-1.640;2023-06-22T09:57:17;24.30;99.90
76120;DHT22;64852;48.092;-1.640;2023-06-22T09:59:42;24.30;99.90
76120;DHT22;64852;48.092;-1.640;2023-06-22T10:02:08;24.30;99.90
76120;DHT22;64852;48.092;-1.640;2023-06-22T10:04:34;24.30;99.90
76120;DHT22;64852;48.092;-1.640;2023-06-22T10:07:01;24.30;99.90
76120;DHT22;64852;48.092;-1.640;2023-06-22T10:09:27;24.20;99.90
76120;DHT22;64852;48.092;-1.640;2023-06-22T10:11:53;24.50;99.90
76120;DHT22;64852;48.092;-1.640;2023-06-22T10:14:18;24.60;99.90
76120;DHT22;64852;48.092;-1.640;2023-06-22T10:16:44;24.70;99.90
76120;DHT22;64852;48.092;-1.640;2023-06-22T10:19:10;24.80;99.90
76120;DHT22;64852;48.092;-1.640;2023-06-22T10:21:35;24.90;99.90
76120;DHT22;64852;48.092;-1.640;2023-06-22T10:24:01;26.70;99.90
76120;DHT22;64852;48.092;-1.640;2023-06-22T10:26:32;25.10;99.90
76120;DHT22;64852;48.092;-1.640;2023-06-22T10:28:58;25.20;99.90
76120;DHT22;64852;48.092;-1.640;2023-06-22T10:31:24;25.30;99.90
76120;DHT22;64852;48.092;-1.640;2023-06-22T10:33:49;25.50;99.90
76120;DHT22;64852;48.092;-1.640;2023-06-22T10:36:15;25.50;99.90
76120;DHT22;64852;48.092;-1.640;2023-06-22T10:38:41;25.50;98.20
76120;DHT22;64852;48.092;-1.640;2023-06-22T10:41:06;25.50;99.90
76120;DHT22;64852;48.092;-1.640;2023-06-22T10:43:32;25.50;98.70
76120;DHT22;64852;48.092;-1.640;2023-06-22T10:45:58;25.50;98.00
76120;DHT22;64852;48.092;-1.640;2023-06-22T10:48:23;25.60;98.70
76120;DHT22;64852;48.092;-1.640;2023-06-22T10:50:49;25.70;99.90
76120;DHT22;64852;48.092;-1.640;2023-06-22T10:53:14;25.80;99.90
76120;DHT22;64852;48.092;-1.640;2023-06-22T10:55:40;25.90;99.90
76120;DHT22;64852;48.092;-1.640;2023-06-22T10:58:06;25.90;99.20
76120;DHT22;64852;48.092;-1.640;2023-06-22T11:00:31;25.90;98.90
76120;DHT22;64852;48.092;-1.640;2023-06-22T11:02:57;26.00;96.60
76120;DHT22;64852;48.092;-1.640;2023-06-22T11:05:23;26.10;91.80
76120;DHT22;64852;48.092;-1.640;2023-06-22T11:07:49;26.10;93.00
76120;DHT22;64852;48.092;-1.640;2023-06-22T11:10:15;26.10;94.80
76120;DHT22;64852;48.092;-1.640;2023-06-22T11:12:41;26.00;93.30
76120;DHT22;64852;48.092;-1.640;2023-06-22T11:15:08;26.00;91.90
76120;DHT22;64852;48.092;-1.640;2023-06-22T11:17:34;26.10;94.00
76120;DHT22;64852;48.092;-1.640;2023-06-22T11:20:00;26.20;90.30
76120;DHT22;64852;48.092;-1.640;2023-06-22T11:22:26;26.20;90.80
76120;DHT22;64852;48.092;-1.640;2023-06-22T11:24:52;26.10;91.90
76120;DHT22;64852;48.092;-1.640;2023-06-22T11:27:17;26.20;89.90
76120;DHT22;64852;48.092;-1.640;2023-06-22T11:29:43;26.40;92.90
76120;DHT22;64852;48.092;-1.640;2023-06-22T11:32:09;26.50;92.10
76120;DHT22;64852;48.092;-1.640;2023-06-22T11:34:34;26.60;91.10
76120;DHT22;64852;48.092;-1.640;2023-06-22T11:37:00;26.70;89.00
76120;DHT22;64852;48.092;-1.640;2023-06-22T11:39:25;26.80;90.80
76120;DHT22;64852;48.092;-1.640;2023-06-22T11:41:51;27.00;91.50
76120;DHT22;64852;48.092;-1.640;2023-06-22T11:44:17;27.10;88.60
76120;DHT22;64852;48.092;-1.640;2023-06-22T11:46:42;27.10;88.60
76120;DHT22;64852;48.092;-1.640;2023-06-22T11:49:08;27.20;86.50
76120;DHT22;64852;48.092;-1.640;2023-06-22T11:51:33;27.30;85.00
76120;DHT22;64852;48.092;-1.640;2023-06-22T11:53:59;27.30;82.90
76120;DHT22;64852;48.092;-1.640;2023-06-22T11:56:24;27.30;85.20
76120;DHT22;64852;48.092;-1.640;2023-06-22T11:58:50;27.40;83.90
76120;DHT22;64852;48.092;-1.640;2023-06-22T12:01:16;27.50;87.90
76120;DHT22;64852;48.092;-1.640;2023-06-22T12:03:41;27.50;82.30
76120;DHT22;64852;48.092;-1.640;2023-06-22T12:06:09;27.60;74.70
76120;DHT22;64852;48.092;-1.640;2023-06-22T12:08:35;27.60;75.10
76120;DHT22;64852;48.092;-1.640;2023-06-22T12:11:00;27.70;78.00
76120;DHT22;64852;48.092;-1.640;2023-06-22T12:13:25;27.90;80.30
76120;DHT22;64852;48.092;-1.640;2023-06-22T12:15:51;28.10;86.50
76120;DHT22;64852;48.092;-1.640;2023-06-22T12:18:18;28.40;76.00
76120;DHT22;64852;48.092;-1.640;2023-06-22T12:20:45;28.50;71.00
76120;DHT22;64852;48.092;-1.640;2023-06-22T12:23:11;28.90;78.20
76120;DHT22;64852;48.092;-1.640;2023-06-22T12:25:37;29.50;74.80
76120;DHT22;64852;48.092;-1.640;2023-06-22T12:28:02;29.80;75.00
76120;DHT22;64852;48.092;-1.640;2023-06-22T12:30:29;30.20;71.90
76120;DHT22;64852;48.092;-1.640;2023-06-22T12:32:55;30.40;75.30
76120;DHT22;64852;48.092;-1.640;2023-06-22T12:35:20;31.00;80.00
76120;DHT22;64852;48.092;-1.640;2023-06-22T12:37:46;31.60;75.70
76120;DHT22;64852;48.092;-1.640;2023-06-22T12:40:12;31.60;65.40
76120;DHT22;64852;48.092;-1.640;2023-06-22T12:42:37;31.50;64.80
76120;DHT22;64852;48.092;-1.640;2023-06-22T12:45:03;31.70;66.80
76120;DHT22;64852;48.092;-1.640;2023-06-22T12:47:29;32.00;57.60
76120;DHT22;64852;48.092;-1.640;2023-06-22T12:49:54;32.00;63.00
76120;DHT22;64852;48.092;-1.640;2023-06-22T12:52:19;32.30;60.10
76120;DHT22;64852;48.092;-1.640;2023-06-22T12:54:45;32.50;55.90
76120;DHT22;64852;48.092;-1.640;2023-06-22T12:57:11;32.50;58.60
76120;DHT22;64852;48.092;-1.640;2023-06-22T12:59:36;32.10;56.30
76120;DHT22;64852;48.092;-1.640;2023-06-22T13:02:02;31.60;56.10
76120;DHT22;64852;48.092;-1.640;2023-06-22T13:04:28;31.30;58.30
76120;DHT22;64852;48.092;-1.640;2023-06-22T13:06:53;31.50;60.50
76120;DHT22;64852;48.092;-1.640;2023-06-22T13:09:19;31.60;54.80
76120;DHT22;64852;48.092;-1.640;2023-06-22T13:11:44;31.80;57.00
76120;DHT22;64852;48.092;-1.640;2023-06-22T13:14:10;31.70;54.70
76120;DHT22;64852;48.092;-1.640;2023-06-22T13:16:35;31.50;55.20
76120;DHT22;64852;48.092;-1.640;2023-06-22T13:19:01;31.80;55.70
76120;DHT22;64852;48.092;-1.640;2023-06-22T13:21:26;32.20;54.80
76120;DHT22;64852;48.092;-1.640;2023-06-22T13:23:52;32.80;58.70
76120;DHT22;64852;48.092;-1.640;2023-06-22T13:26:18;33.30;51.90
76120;DHT22;64852;48.092;-1.640;2023-06-22T13:28:43;33.00;53.20
76120;DHT22;64852;48.092;-1.640;2023-06-22T13:31:09;32.60;53.10
76120;DHT22;64852;48.092;-1.640;2023-06-22T13:33:34;32.50;53.00
76120;DHT22;64852;48.092;-1.640;2023-06-22T13:36:00;32.40;52.10
76120;DHT22;64852;48.092;-1.640;2023-06-22T13:38:25;32.70;55.10
76120;DHT22;64852;48.092;-1.640;2023-06-22T13:40:51;33.20;53.00
76120;DHT22;64852;48.092;-1.640;2023-06-22T13:43:16;33.30;52.00
76120;DHT22;64852;48.092;-1.640;2023-06-22T13:45:42;33.40;50.80
76120;DHT22;64852;48.092;-1.640;2023-06-22T13:48:08;33.30;50.30
76120;DHT22;64852;48.092;-1.640;2023-06-22T13:50:34;33.60;51.90
76120;DHT22;64852;48.092;-1.640;2023-06-22T13:53:00;33.70;50.50
76120;DHT22;64852;48.092;-1.640;2023-06-22T13:55:25;33.70;51.50
76120;DHT22;64852;48.092;-1.640;2023-06-22T13:57:51;34.10;52.20
76120;DHT22;64852;48.092;-1.640;2023-06-22T14:00:18;34.50;48.30
76120;DHT22;64852;48.092;-1.640;2023-06-22T14:02:43;34.30;44.80
76120;DHT22;64852;48.092;-1.640;2023-06-22T14:05:09;34.30;46.70
76120;DHT22;64852;48.092;-1.640;2023-06-22T14:07:37;34.60;45.90
76120;DHT22;64852;48.092;-1.640;2023-06-22T14:10:03;34.90;44.70
76120;DHT22;64852;48.092;-1.640;2023-06-22T14:12:28;35.40;45.40
76120;DHT22;64852;48.092;-1.640;2023-06-22T14:14:54;35.90;43.20
76120;DHT22;64852;48.092;-1.640;2023-06-22T14:17:19;36.30;45.30
76120;DHT22;64852;48.092;-1.640;2023-06-22T14:19:50;36.60;42.30
76120;DHT22;64852;48.092;-1.640;2023-06-22T14:22:19;37.00;44.80
76120;DHT22;64852;48.092;-1.640;2023-06-22T14:24:45;37.30;41.70
76120;DHT22;64852;48.092;-1.640;2023-06-22T14:27:11;37.60;42.00
76120;DHT22;64852;48.092;-1.640;2023-06-22T14:29:36;38.00;39.50
76120;DHT22;64852;48.092;-1.640;2023-06-22T14:32:02;38.20;41.20
76120;DHT22;64852;48.092;-1.640;2023-06-22T14:34:27;38.40;40.70
76120;DHT22;64852;48.092;-1.640;2023-06-22T14:36:53;38.50;38.40
76120;DHT22;64852;48.092;-1.640;2023-06-22T14:39:18;38.70;39.20
76120;DHT22;64852;48.092;-1.640;2023-06-22T14:41:45;38.90;39.70
76120;DHT22;64852;48.092;-1.640;2023-06-22T14:44:11;39.10;37.00
76120;DHT22;64852;48.092;-1.640;2023-06-22T14:46:36;39.30;39.60
76120;DHT22;64852;48.092;-1.640;2023-06-22T14:49:02;39.60;39.00
76120;DHT22;64852;48.092;-1.640;2023-06-22T14:51:27;39.90;37.10
76120;DHT22;64852;48.092;-1.640;2023-06-22T14:53:53;40.20;36.10
76120;DHT22;64852;48.092;-1.640;2023-06-22T14:56:18;40.30;35.50
76120;DHT22;64852;48.092;-1.640;2023-06-22T14:58:44;40.40;35.80
76120;DHT22;64852;48.092;-1.640;2023-06-22T15:01:12;40.60;36.10
76120;DHT22;64852;48.092;-1.640;2023-06-22T15:03:38;40.70;33.60
76120;DHT22;64852;48.092;-1.640;2023-06-22T15:06:03;40.70;33.00
76120;DHT22;64852;48.092;-1.640;2023-06-22T15:08:29;40.70;33.20
76120;DHT22;64852;48.092;-1.640;2023-06-22T15:10:55;40.30;30.40
76120;DHT22;64852;48.092;-1.640;2023-06-22T15:13:23;40.30;33.40
76120;DHT22;64852;48.092;-1.640;2023-06-22T15:15:48;40.50;32.80
76120;DHT22;64852;48.092;-1.640;2023-06-22T15:18:14;40.70;31.10